createdAt,value
2023-03-04T00:00:43.086Z,17.20
2023-03-04T00:03:11.366Z,17.20
2023-03-04T00:05:39.279Z,17.20
2023-03-04T00:08:07.402Z,17.20
2023-03-04T00:10:35.338Z,17.20
2023-03-04T00:13:03.254Z,17.20
2023-03-04T00:15:31.176Z,17.20
2023-03-04T00:18:00.446Z,17.20
2023-03-04T00:20:28.443Z,17.10
2023-03-04T00:22:56.386Z,17.10
2023-03-04T00:25:24.307Z,17.10
2023-03-04T00:27:52.352Z,17.20
2023-03-04T00:30:20.362Z,17.20
2023-03-04T00:32:48.298Z,17.30
2023-03-04T00:35:17.777Z,17.30
2023-03-04T00:37:45.703Z,17.30
2023-03-04T00:40:14.326Z,17.30
2023-03-04T00:42:42.235Z,17.20
2023-03-04T00:45:11.168Z,17.20
2023-03-04T00:47:40.134Z,17.20
2023-03-04T00:50:08.733Z,17.20
2023-03-04T00:52:38.053Z,17.20
2023-03-04T00:55:07.240Z,17.20
2023-03-04T00:57:35.110Z,17.10
2023-03-04T01:00:03.056Z,17.10
2023-03-04T01:02:31.043Z,17.20
2023-03-04T01:04:58.948Z,17.20
2023-03-04T01:07:26.895Z,17.20
2023-03-04T01:09:57.201Z,17.10
2023-03-04T01:12:25.804Z,17.10
2023-03-04T01:14:53.685Z,17.10
2023-03-04T01:17:21.575Z,17.20
2023-03-04T01:19:49.477Z,17.30
2023-03-04T01:22:18.983Z,17.40
2023-03-04T01:24:49.008Z,17.30
2023-03-04T01:27:20.645Z,17.30
2023-03-04T01:29:50.201Z,17.30
2023-03-04T01:32:18.152Z,17.30
2023-03-04T01:34:46.105Z,17.30
2023-03-04T01:37:14.555Z,17.30
2023-03-04T01:39:42.491Z,17.20
2023-03-04T01:42:14.679Z,17.20
2023-03-04T01:44:43.924Z,17.20
2023-03-04T01:47:12.111Z,17.20
2023-03-04T01:49:40.068Z,17.20
2023-03-04T01:52:11.522Z,17.20
2023-03-04T01:54:39.480Z,17.20
2023-03-04T01:57:10.806Z,17.10
2023-03-04T01:59:39.520Z,17.10
2023-03-04T02:02:08.732Z,17.10
2023-03-04T02:04:39.088Z,17.10
2023-03-04T02:07:07.070Z,17.10
2023-03-04T02:09:35.723Z,17.10
2023-03-04T02:12:03.654Z,17.10
2023-03-04T02:14:32.125Z,17.10
2023-03-04T02:17:00.297Z,17.10
2023-03-04T02:19:38.772Z,17.10
2023-03-04T02:22:06.704Z,17.20
2023-03-04T02:24:36.525Z,17.40
2023-03-04T02:27:07.072Z,17.40
2023-03-04T02:29:35.081Z,17.40
2023-03-04T02:32:03.325Z,17.40
2023-03-04T02:34:33.005Z,17.30
2023-03-04T02:37:00.965Z,17.30
2023-03-04T02:39:32.549Z,17.30
2023-03-04T02:42:00.500Z,17.30
2023-03-04T02:44:31.926Z,17.20
2023-03-04T02:47:00.050Z,17.20
2023-03-04T02:49:29.274Z,17.20
2023-03-04T02:52:00.540Z,17.20
2023-03-04T02:54:28.444Z,17.20
2023-03-04T02:56:58.769Z,17.20
2023-03-04T02:59:27.062Z,17.10
2023-03-04T03:01:56.340Z,17.10
2023-03-04T03:04:24.473Z,17.10
2023-03-04T03:06:54.563Z,17.10
2023-03-04T03:09:23.315Z,17.10
2023-03-04T03:11:51.208Z,17.10
2023-03-04T03:14:19.919Z,17.10
2023-03-04T03:16:47.831Z,17.10
2023-03-04T03:19:17.109Z,17.10
2023-03-04T03:21:45.129Z,17.10
2023-03-04T03:24:13.091Z,17.10
2023-03-04T03:26:41.285Z,17.30
2023-03-04T03:29:11.801Z,17.30
2023-03-04T03:31:39.806Z,17.40
2023-03-04T03:34:07.727Z,17.30
2023-03-04T03:36:37.025Z,17.30
2023-03-04T03:39:05.384Z,17.30
2023-03-04T03:41:33.253Z,17.30
2023-03-04T03:44:01.768Z,17.20
2023-03-04T03:46:29.822Z,17.20
2023-03-04T03:48:57.774Z,17.20
2023-03-04T03:51:25.750Z,17.20
2023-03-04T03:53:54.978Z,17.10
2023-03-04T03:56:22.861Z,17.10
2023-03-04T03:58:50.731Z,17.10
2023-03-04T04:01:18.736Z,17.10
2023-03-04T04:03:46.611Z,17.10
2023-03-04T04:06:14.539Z,17.10
2023-03-04T04:08:42.644Z,17.10
2023-03-04T04:11:12.048Z,17.10
2023-03-04T04:13:39.947Z,17.10
2023-03-04T04:16:09.092Z,17.10
2023-03-04T04:18:36.982Z,17.10
2023-03-04T04:21:05.221Z,17.10
2023-03-04T04:23:33.253Z,17.10
2023-03-04T04:26:01.135Z,17.10
2023-03-04T04:28:30.379Z,17.10
2023-03-04T04:30:58.312Z,17.30
2023-03-04T04:33:26.269Z,17.40
2023-03-04T04:35:54.421Z,17.40
2023-03-04T04:38:22.335Z,17.40
2023-03-04T04:40:50.262Z,17.30
2023-03-04T04:43:18.152Z,17.30
2023-03-04T04:45:47.446Z,17.30
2023-03-04T04:48:15.364Z,17.20
2023-03-04T04:50:43.302Z,17.20
2023-03-04T04:53:13.973Z,17.20
2023-03-04T04:55:41.860Z,17.10
2023-03-04T04:58:09.788Z,17.10
2023-03-04T05:00:37.725Z,17.10
2023-03-04T05:03:06.959Z,17.10
2023-03-04T05:05:34.964Z,17.10
2023-03-04T05:08:02.895Z,17.10
2023-03-04T05:10:30.793Z,17.10
2023-03-04T05:12:58.699Z,17.10
2023-03-04T05:15:26.593Z,17.10
2023-03-04T05:17:54.456Z,17.20
2023-03-04T05:20:24.302Z,17.20
2023-03-04T05:22:52.242Z,17.20
2023-03-04T05:25:20.173Z,17.10
2023-03-04T05:27:48.098Z,17.10
2023-03-04T05:30:16.024Z,17.20
2023-03-04T05:32:44.081Z,17.30
2023-03-04T05:35:11.989Z,17.40
2023-03-04T05:37:41.303Z,17.40
2023-03-04T05:40:10.715Z,17.40
2023-03-04T05:42:38.589Z,17.30
2023-03-04T05:45:07.649Z,17.30
2023-03-04T05:47:35.552Z,17.30
2023-03-04T05:50:06.365Z,17.30
2023-03-04T05:52:35.399Z,17.30
2023-03-04T05:55:04.803Z,17.20
2023-03-04T05:57:32.651Z,17.20
2023-03-04T06:00:00.544Z,17.20
2023-03-04T06:02:28.467Z,17.10
2023-03-04T06:04:56.538Z,17.10
2023-03-04T06:07:24.443Z,17.10
2023-03-04T06:09:52.292Z,17.10
2023-03-04T06:12:21.584Z,17.10
2023-03-04T06:14:49.477Z,17.10
2023-03-04T06:17:17.355Z,17.10
2023-03-04T06:19:45.250Z,17.20
2023-03-04T06:22:13.180Z,17.20
2023-03-04T06:24:41.074Z,17.20
2023-03-04T06:27:08.955Z,17.20
2023-03-04T06:29:38.196Z,17.20
2023-03-04T06:32:06.293Z,17.20
2023-03-04T06:34:34.355Z,17.20
2023-03-04T06:37:02.728Z,17.20
2023-03-04T06:39:30.682Z,17.20
2023-03-04T06:41:58.588Z,17.20
2023-03-04T06:44:26.489Z,17.10
2023-03-04T06:46:55.742Z,17.10
2023-03-04T06:49:23.647Z,17.10
2023-03-04T06:51:51.532Z,17.20
2023-03-04T06:54:20.003Z,17.20
2023-03-04T06:56:47.861Z,17.30
2023-03-04T06:59:15.870Z,17.20
2023-03-04T07:01:43.802Z,17.20
2023-03-04T07:04:13.113Z,17.20
2023-03-04T07:06:41.129Z,17.20
2023-03-04T07:09:09.068Z,17.20
2023-03-04T07:11:36.934Z,17.20
2023-03-04T07:14:04.833Z,17.10
2023-03-04T07:16:32.773Z,17.10
2023-03-04T07:19:00.752Z,17.10
2023-03-04T07:21:30.070Z,17.10
2023-03-04T07:23:57.939Z,17.20
2023-03-04T07:26:25.790Z,17.30
2023-03-04T07:28:54.561Z,17.30
2023-03-04T07:31:23.781Z,17.30
2023-03-04T07:33:57.523Z,17.20
2023-03-04T07:36:25.553Z,17.20
2023-03-04T07:38:55.689Z,17.20
2023-03-04T07:41:24.333Z,17.20
2023-03-04T07:43:52.273Z,17.20
2023-03-04T07:46:20.301Z,17.10
2023-03-04T07:48:48.276Z,17.10
2023-03-04T07:51:17.184Z,17.10
2023-03-04T07:53:48.740Z,17.10
2023-03-04T07:56:21.186Z,17.10
2023-03-04T07:58:49.148Z,17.10
2023-03-04T08:01:17.761Z,17.10
2023-03-04T08:03:45.649Z,17.10
2023-03-04T08:06:14.370Z,17.10
2023-03-04T08:08:42.894Z,17.10
2023-03-04T08:11:11.864Z,17.20
2023-03-04T08:13:41.213Z,17.20
2023-03-04T08:16:11.978Z,17.20
2023-03-04T08:18:40.691Z,17.20
2023-03-04T08:21:10.685Z,17.20
2023-03-04T08:23:38.599Z,17.10
2023-03-04T08:26:09.480Z,17.10
2023-03-04T08:28:37.465Z,17.10
2023-03-04T08:31:06.936Z,17.10
2023-03-04T08:33:34.903Z,17.10
2023-03-04T08:36:02.785Z,17.10
2023-03-04T08:38:31.887Z,17.10
2023-03-04T08:40:59.761Z,17.10
2023-03-04T08:43:27.736Z,17.10
2023-03-04T08:45:55.664Z,17.10
2023-03-04T08:48:24.888Z,17.00
2023-03-04T08:50:52.884Z,17.10
2023-03-04T08:53:20.934Z,17.00
2023-03-04T08:55:48.826Z,17.10
2023-03-04T08:58:18.656Z,17.10
2023-03-04T09:00:48.327Z,17.20
2023-03-04T09:03:16.828Z,17.20
2023-03-04T09:05:46.477Z,17.20
2023-03-04T09:08:14.403Z,17.20
2023-03-04T09:10:43.458Z,17.10
2023-03-04T09:13:12.405Z,17.10
2023-03-04T09:15:45.439Z,17.10
2023-03-04T09:18:13.430Z,17.10
2023-03-04T09:20:41.452Z,17.10
2023-03-04T09:23:10.838Z,17.10
2023-03-04T09:25:43.853Z,17.00
2023-03-04T09:28:11.793Z,17.10
2023-03-04T09:30:39.697Z,17.20
2023-03-04T09:33:07.640Z,17.20
2023-03-04T09:35:35.589Z,17.20
2023-03-04T09:38:05.794Z,17.20
2023-03-04T09:40:40.782Z,17.10
2023-03-04T09:43:12.515Z,17.10
2023-03-04T09:45:42.605Z,17.10
2023-03-04T09:48:11.168Z,17.10
2023-03-04T09:50:41.309Z,17.10
2023-03-04T09:53:15.873Z,17.10
2023-03-04T09:55:47.528Z,17.10
2023-03-04T09:58:19.741Z,17.00
2023-03-04T10:00:48.688Z,17.10
2023-03-04T10:03:18.600Z,17.10
2023-03-04T10:05:51.993Z,17.10
2023-03-04T10:08:45.704Z,17.00
2023-03-04T10:11:17.503Z,17.00
2023-03-04T10:13:52.901Z,17.00
2023-03-04T10:16:22.534Z,17.10
2023-03-04T10:18:51.383Z,17.20
2023-03-04T10:21:23.321Z,17.30
2023-03-04T10:23:51.212Z,17.30
2023-03-04T10:26:21.284Z,17.20
2023-03-04T10:28:49.252Z,17.20
2023-03-04T10:31:20.370Z,17.20
2023-03-04T10:33:48.263Z,17.20
2023-03-04T10:36:26.785Z,17.10
2023-03-04T10:38:55.224Z,17.10
2023-03-04T10:41:26.158Z,17.10
2023-03-04T10:44:02.280Z,17.10
2023-03-04T10:46:30.292Z,17.00
2023-03-04T10:48:58.251Z,17.00
2023-03-04T10:51:27.111Z,17.00
2023-03-04T10:53:59.410Z,17.00
2023-03-04T10:56:36.476Z,17.00
2023-03-04T10:59:40.444Z,17.00
2023-03-04T11:02:20.834Z,17.00
2023-03-04T11:04:53.568Z,17.00
2023-03-04T11:07:22.124Z,17.00
2023-03-04T11:09:50.059Z,17.00
2023-03-04T11:12:21.418Z,17.00
2023-03-04T11:14:50.039Z,17.00
2023-03-04T11:17:20.275Z,17.00
2023-03-04T11:19:49.407Z,17.00
2023-03-04T11:22:18.069Z,17.20
2023-03-04T11:24:49.257Z,17.20
2023-03-04T11:27:19.874Z,17.30
2023-03-04T11:29:49.596Z,17.30
2023-03-04T11:32:20.196Z,17.20
2023-03-04T11:34:49.693Z,17.20
2023-03-04T11:37:19.931Z,17.20
2023-03-04T11:39:48.908Z,17.20
2023-03-04T11:42:24.951Z,17.10
2023-03-04T11:44:53.118Z,17.10
2023-03-04T11:47:38.282Z,17.10
2023-03-04T11:50:11.743Z,17.00
2023-03-04T11:53:00.446Z,17.00
2023-03-04T11:55:33.079Z,17.00
2023-03-04T11:58:08.589Z,17.00
2023-03-04T12:00:39.787Z,17.00
2023-03-04T12:03:22.228Z,17.00
2023-03-04T12:05:53.627Z,17.00
2023-03-04T12:08:49.451Z,17.00
2023-03-04T12:11:20.451Z,17.00
2023-03-04T12:13:55.790Z,16.90
2023-03-04T12:16:34.228Z,16.90
2023-03-04T12:19:11.131Z,16.90
2023-03-04T12:21:52.134Z,16.90
2023-03-04T12:24:36.052Z,17.00
2023-03-04T12:27:07.219Z,17.10
2023-03-04T12:29:38.815Z,17.30
2023-03-04T12:32:11.280Z,17.40
2023-03-04T12:34:57.158Z,17.60
2023-03-04T12:37:51.917Z,17.80
2023-03-04T12:40:37.541Z,17.90
2023-03-04T12:43:10.978Z,18.00
2023-03-04T12:45:44.710Z,18.10
2023-03-04T12:48:18.854Z,18.10
2023-03-04T12:50:52.507Z,18.20
2023-03-04T12:53:24.697Z,18.10
2023-03-04T12:55:52.597Z,18.00
2023-03-04T12:58:22.831Z,17.90
2023-03-04T13:00:56.822Z,17.70
2023-03-04T13:03:27.593Z,17.60
2023-03-04T13:06:07.573Z,17.60
2023-03-04T13:08:41.706Z,17.50
2023-03-04T13:11:40.934Z,17.40
2023-03-04T13:14:09.506Z,17.30
2023-03-04T13:16:40.140Z,17.30
2023-03-04T13:19:41.424Z,17.20
2023-03-04T13:22:30.883Z,17.20
2023-03-04T13:24:58.989Z,17.20
2023-03-04T13:27:46.056Z,17.20
2023-03-04T13:30:41.741Z,17.10
2023-03-04T13:33:48.365Z,17.10
2023-03-04T13:36:50.302Z,17.20
2023-03-04T13:39:32.066Z,17.30
2023-03-04T13:42:00.072Z,17.30
2023-03-04T13:45:04.293Z,17.20
2023-03-04T13:47:44.225Z,17.20
2023-03-04T13:50:44.605Z,17.20
2023-03-04T13:53:46.505Z,17.20
2023-03-04T13:56:24.114Z,17.10
2023-03-04T13:58:53.382Z,17.10
2023-03-04T14:01:31.749Z,17.10
2023-03-04T14:03:59.817Z,17.00
2023-03-04T14:06:29.488Z,17.00
2023-03-04T14:08:57.732Z,17.00
2023-03-04T14:11:28.494Z,17.00
2023-03-04T14:13:57.210Z,17.00
2023-03-04T14:16:26.988Z,17.00
2023-03-04T14:18:59.591Z,17.00
2023-03-04T14:21:30.046Z,17.10
2023-03-04T14:24:02.119Z,17.20
2023-03-04T14:26:31.043Z,17.20
2023-03-04T14:28:59.722Z,17.20
2023-03-04T14:31:29.962Z,17.20
2023-03-04T14:34:01.936Z,17.20
2023-03-04T14:36:33.014Z,17.20
2023-03-04T14:39:01.860Z,17.20
2023-03-04T14:41:31.213Z,17.10
2023-03-04T14:44:06.495Z,17.10
2023-03-04T14:46:36.415Z,17.00
2023-03-04T14:49:06.393Z,17.00
2023-03-04T14:51:41.483Z,17.00
2023-03-04T14:54:25.743Z,17.00
2023-03-04T14:56:53.649Z,17.00
2023-03-04T14:59:29.956Z,17.00
2023-03-04T15:02:22.540Z,17.00
2023-03-04T15:04:51.112Z,16.90
2023-03-04T15:07:30.206Z,17.00
2023-03-04T15:09:58.086Z,17.10
2023-03-04T15:12:27.852Z,17.10
2023-03-04T15:14:57.442Z,17.10
2023-03-04T15:17:27.920Z,17.10
2023-03-04T15:20:03.669Z,17.00
2023-03-04T15:22:33.056Z,17.00
2023-03-04T15:25:00.944Z,17.00
2023-03-04T15:27:29.553Z,17.00
2023-03-04T15:29:59.204Z,16.90
2023-03-04T15:32:30.464Z,16.90
2023-03-04T15:34:58.420Z,16.90
2023-03-04T15:37:27.878Z,16.90
2023-03-04T15:39:57.898Z,16.90
2023-03-04T15:42:25.784Z,16.90
2023-03-04T15:44:54.893Z,16.80
2023-03-04T15:47:22.770Z,16.80
2023-03-04T15:49:51.741Z,16.80
2023-03-04T15:52:21.906Z,16.90
2023-03-04T15:54:49.950Z,17.00
2023-03-04T15:57:21.330Z,17.10
2023-03-04T15:59:49.258Z,17.10
2023-03-04T16:02:20.001Z,17.10
2023-03-04T16:04:47.930Z,17.00
2023-03-04T16:07:17.431Z,17.00
2023-03-04T16:09:45.341Z,17.00
2023-03-04T16:12:13.336Z,17.00
2023-03-04T16:14:44.314Z,17.00
2023-03-04T16:17:12.232Z,16.90
2023-03-04T16:19:40.211Z,16.90
2023-03-04T16:22:08.094Z,16.90
2023-03-04T16:24:38.893Z,16.90
2023-03-04T16:27:10.086Z,16.90
2023-03-04T16:29:38.001Z,16.90
2023-03-04T16:32:10.017Z,16.90
2023-03-04T16:34:38.000Z,16.80
2023-03-04T16:37:08.028Z,16.80
2023-03-04T16:39:35.909Z,16.90
2023-03-04T16:42:03.839Z,17.00
2023-03-04T16:44:31.733Z,17.00
2023-03-04T16:46:59.614Z,17.10
2023-03-04T16:49:31.528Z,17.00
2023-03-04T16:52:00.892Z,17.00
2023-03-04T16:54:30.503Z,17.00
2023-03-04T16:56:58.913Z,17.00
2023-03-04T16:59:26.848Z,17.00
2023-03-04T17:01:56.642Z,17.00
2023-03-04T17:04:24.711Z,17.00
2023-03-04T17:06:53.975Z,16.90
2023-03-04T17:09:21.923Z,16.90
2023-03-04T17:11:49.792Z,16.90
2023-03-04T17:14:17.651Z,17.00
2023-03-04T17:16:45.510Z,16.90
2023-03-04T17:19:13.400Z,16.90
2023-03-04T17:21:41.292Z,16.90
2023-03-04T17:24:11.865Z,16.90
2023-03-04T17:26:40.628Z,17.00
2023-03-04T17:29:08.531Z,17.10
2023-03-04T17:31:37.243Z,17.10
2023-03-04T17:34:05.169Z,17.20
2023-03-04T17:36:33.075Z,17.10
2023-03-04T17:39:01.122Z,17.10
2023-03-04T17:41:30.494Z,17.10
2023-03-04T17:43:58.400Z,17.10
2023-03-04T17:46:28.750Z,17.00
2023-03-04T17:48:57.480Z,17.00
2023-03-04T17:51:30.502Z,17.00
2023-03-04T17:53:58.416Z,16.90
2023-03-04T17:56:30.014Z,16.90
2023-03-04T17:58:59.429Z,16.90
2023-03-04T18:01:27.380Z,16.90
2023-03-04T18:03:55.348Z,16.90
2023-03-04T18:06:24.958Z,16.90
2023-03-04T18:08:53.004Z,16.90
2023-03-04T18:11:21.389Z,16.90
2023-03-04T18:13:49.312Z,16.90
2023-03-04T18:16:23.495Z,17.00
2023-03-04T18:18:51.479Z,17.10
2023-03-04T18:21:19.629Z,17.10
2023-03-04T18:23:47.771Z,17.10
2023-03-04T18:26:15.695Z,17.10
2023-03-04T18:28:43.643Z,17.00
2023-03-04T18:31:11.612Z,17.00
2023-03-04T18:33:41.334Z,17.00
2023-03-04T18:36:10.085Z,17.00
2023-03-04T18:38:38.225Z,17.00
2023-03-04T18:41:07.565Z,17.00
2023-03-04T18:43:35.730Z,17.00
2023-03-04T18:46:04.819Z,17.00
2023-03-04T18:48:34.023Z,17.00
2023-03-04T18:51:03.459Z,17.00
2023-03-04T18:53:31.504Z,17.00
2023-03-04T18:56:05.999Z,16.90
2023-03-04T18:58:35.131Z,16.90
2023-03-04T19:01:04.836Z,16.90
2023-03-04T19:03:34.216Z,16.90
2023-03-04T19:06:03.555Z,16.90
2023-03-04T19:08:31.506Z,16.90
2023-03-04T19:10:59.738Z,16.90
2023-03-04T19:13:30.652Z,16.90
2023-03-04T19:15:58.605Z,16.90
2023-03-04T19:18:26.534Z,17.00
2023-03-04T19:20:54.496Z,17.10
2023-03-04T19:23:24.611Z,17.20
2023-03-04T19:25:52.544Z,17.20
2023-03-04T19:28:20.461Z,17.20
2023-03-04T19:30:48.390Z,17.20
2023-03-04T19:33:16.312Z,17.20
2023-03-04T19:35:45.317Z,17.10
2023-03-04T19:38:13.725Z,17.10
2023-03-04T19:40:46.608Z,17.10
2023-03-04T19:43:14.866Z,17.10
2023-03-04T19:45:42.775Z,17.00
2023-03-04T19:48:10.681Z,17.00
2023-03-04T19:50:38.637Z,17.00
2023-03-04T19:53:06.549Z,17.00
2023-03-04T19:55:38.176Z,17.00
2023-03-04T19:58:07.461Z,17.00
2023-03-04T20:00:36.617Z,17.00
2023-03-04T20:03:07.585Z,16.90
2023-03-04T20:05:35.657Z,17.00
2023-03-04T20:08:03.631Z,17.10
2023-03-04T20:10:34.762Z,17.10
2023-03-04T20:13:02.651Z,17.10
2023-03-04T20:15:31.905Z,17.10
2023-03-04T20:17:59.840Z,17.00
2023-03-04T20:20:29.197Z,17.00
2023-03-04T20:22:57.298Z,17.00
2023-03-04T20:25:25.302Z,17.00
2023-03-04T20:27:53.210Z,17.00
2023-03-04T20:30:21.443Z,17.00
2023-03-04T20:32:50.667Z,17.00
2023-03-04T20:35:18.741Z,16.90
2023-03-04T20:37:46.738Z,17.00
2023-03-04T20:40:14.939Z,17.10
2023-03-04T20:42:42.850Z,17.10
2023-03-04T20:45:11.579Z,17.10
2023-03-04T20:47:39.796Z,17.10
2023-03-04T20:50:10.049Z,17.00
2023-03-04T20:52:37.940Z,17.00
2023-03-04T20:55:06.498Z,17.00
2023-03-04T20:57:34.453Z,17.00
2023-03-04T21:00:05.502Z,17.00
2023-03-04T21:02:33.384Z,17.00
2023-03-04T21:05:02.015Z,16.90
2023-03-04T21:07:31.318Z,16.90
2023-03-04T21:09:59.270Z,16.90
2023-03-04T21:12:27.199Z,16.90
2023-03-04T21:14:55.054Z,16.90
2023-03-04T21:17:24.454Z,16.90
2023-03-04T21:19:53.541Z,16.90
2023-03-04T21:22:21.526Z,16.90
2023-03-04T21:24:50.783Z,17.00
2023-03-04T21:27:26.765Z,17.10
2023-03-04T21:29:54.630Z,17.10
2023-03-04T21:32:26.210Z,17.10
2023-03-04T21:34:54.461Z,17.10
2023-03-04T21:37:22.730Z,17.10
2023-03-04T21:39:53.707Z,17.10
2023-03-04T21:42:21.818Z,17.10
2023-03-04T21:44:51.270Z,17.00
2023-03-04T21:47:19.746Z,17.00
2023-03-04T21:49:47.715Z,17.00
2023-03-04T21:52:15.668Z,16.90
2023-03-04T21:54:45.519Z,16.90
2023-03-04T21:57:15.110Z,16.90
2023-03-04T21:59:43.064Z,16.90
2023-03-04T22:02:14.693Z,16.90
2023-03-04T22:04:42.631Z,16.90
2023-03-04T22:07:10.524Z,16.90
2023-03-04T22:09:39.011Z,16.90
2023-03-04T22:12:07.560Z,16.90
2023-03-04T22:14:36.820Z,17.00
2023-03-04T22:17:04.868Z,17.10
2023-03-04T22:19:32.981Z,17.10
2023-03-04T22:22:00.896Z,17.10
2023-03-04T22:24:28.834Z,17.00
2023-03-04T22:26:57.598Z,17.00
2023-03-04T22:29:25.562Z,17.00
2023-03-04T22:31:55.118Z,17.00
2023-03-04T22:34:23.147Z,17.00
2023-03-04T22:36:51.094Z,17.00
2023-03-04T22:39:20.081Z,16.90
2023-03-04T22:41:48.149Z,16.90
2023-03-04T22:44:16.183Z,16.90
2023-03-04T22:46:44.673Z,16.90
2023-03-04T22:49:14.572Z,16.90
2023-03-04T22:51:43.282Z,16.90
2023-03-04T22:54:12.152Z,16.90
2023-03-04T22:56:40.102Z,16.90
2023-03-04T22:59:08.007Z,16.90
2023-03-04T23:01:35.896Z,17.00
2023-03-04T23:04:03.816Z,17.10
2023-03-04T23:06:33.210Z,17.10
2023-03-04T23:09:01.195Z,17.00
2023-03-04T23:11:30.122Z,17.00
2023-03-04T23:13:58.175Z,17.00
2023-03-04T23:16:27.911Z,17.00
2023-03-04T23:18:59.699Z,17.00
2023-03-04T23:21:33.605Z,17.00
2023-03-04T23:24:04.213Z,16.90
2023-03-04T23:26:33.417Z,16.90
2023-03-04T23:29:01.545Z,16.90
2023-03-04T23:31:29.514Z,16.90
2023-03-04T23:33:57.696Z,16.90
2023-03-04T23:36:26.872Z,16.90
2023-03-04T23:38:54.910Z,16.90
2023-03-04T23:41:25.061Z,16.90
2023-03-04T23:43:53.460Z,16.90
2023-03-04T23:46:21.545Z,16.90
2023-03-04T23:48:49.606Z,17.00
2023-03-04T23:51:19.595Z,17.10
2023-03-04T23:53:47.736Z,17.10
2023-03-04T23:56:17.043Z,17.10
2023-03-04T23:58:46.434Z,17.00
